Longview, Washington
Current Conditions -  °F | °C
As of 1:53 AM on Monday 20 Oct 2014 (Local Time) from KSPB Reporting Station
Overcast Overcast  
Wind Chill: 57°   Ceiling: 8500
Heat Index: 57°   Visibility: 10mi
Dew Point: 56°   Wind: 0mph
Humidity: 96%   Direction: NA
Pressure: 29.72"   Gusts: NA
Location:  46.15°N, 122.95°W
Report Text: KSPB 200853Z AUTO 00000KT 10SM FEW070 OVC085 14/13 A2972 RMK AO2 RAE53 SLP063 P0003 60003 T01390133 58000
Loading
Personal Weather Stations






























Interactive Weather Map
Tropical Storm Tracking
New forecast layout! Learn more

10-Day Weather Forecast

Advertisements
Track Severe Weather on mobile